Terminal Aerodrome Forecast
Issued by NWS Cleveland, OH

Home | Current Version | Previous Version | Text Only | Print | Product List | Glossary On
Versions: 1 2 3 4 5 6 7 8 9 10 11 12 13 14 15 16 17 18 19 20 21 22 23 24 25 26 27 28 29
000
FTUS41 KCLE 112327
TAFCLE
TAF
KCLE 112327Z 1200/1306 17005KT P6SM SCT050 BKN150
     FM120300 19008KT 6SM -SN SCT035 OVC060
      TEMPO 1203/1206 3SM -SN BKN025
     FM120600 VRB05KT 1 1/2SM -SN SCT008 OVC015
     FM121100 30020G30KT 2SM -SHSN OVC015
     FM121400 30022G32KT 5SM -SHSN OVC020=

USA.gov is the U.S. government's official web portal to all federal, state and local government web resources and services.